Detall de PIREP

Printer-friendly versionPDF version

[2014/06/25 09:47:00]
Flight IATA:CT1004
Pilot Number:042
Company ICAO:CAT
Aircraft Type:F100/A
PAX:48
Aircraft Registration:PFJ
Departing Airport: LFMP
Destination Airport: LEAL
Alternate Airport:LEPA
Online: VATSIM
Route:BGR UN855 POS UL129 LULAK UM603 GERVU
Flight Level:F310
No Slew and time accel
No pause
Crash detect
Detect pilot in Cockpit between each 30 and 45 minutes
09:47 Zero fuel Weight: 72667 Lbs, Fuel Weight: 17892 Lbs
09:47 VATSIM:LFMP 250830Z 28008KT 9999 -RA BKN026 BKN063 20/16 Q1011 NOSIG
09:47 VATSIM:LEAL 250830Z 30011KT 270V330 9999 FEW030 26/11 Q1013 NOSIG
09:49 Parking Brakes off
09:51 Take-off
09:51 Take off Weight: 90286 Lbs
09:51 Wind: 279º @ 008 Knots Heading: 326º
09:51 POS N42º 45´ 02´´ E002º 51´ 52´´
09:51 Gear Up: 166 Knots
09:51 Flaps:3 at 166 Knots
09:52 Flaps:2 at 163 Knots
09:52 Flaps:1 at 195 Knots
09:52 Flaps:0 at 197 Knots
10:06 Wind:283º@032 Knots Heading: 195º Ground Speed: 352 Knots Altitude 26266 ft
10:18 TOC
10:18 Fuel Weight: 14717 Lb
10:21 Wind:247º@037 Knots Heading: 186º Ground Speed: 422 Knots Altitude 30961 ft
10:36 Wind:240º@054 Knots Heading: 248º Ground Speed: 409 Knots Altitude 30990 ft
10:36 TOD
10:36 Fuel Weight: 13204 Lb
10:51 Wind:292º@028 Knots Heading: 257º Ground Speed: 264 Knots Altitude 9688 ft
11:02 Flaps:1 at 220 Knots
11:04 Flaps:2 at 210 Knots
11:04 Gear Down: 184 Knots
11:04 Flaps:3 at 184 Knots
11:06 Wind:294º@013 Knots Heading: 100º Ground Speed: 178 Knots Altitude 1335 ft
11:07 TouchDown:Rate -86 ft/min Speed: 132 Knots
11:07 VATSIM:LEAL 251030Z 30013KT 260V340 9999 FEW030 28/10 Q1013 NOSIG
11:07 Land
11:07 Wind:297º@013 Knots
11:07 Heading: 097º
11:07 Flight Duration: 01:16
11:07 Landing Weight: 84516 Lbs
11:07 POS N38º 16´ 51´´ W000º 32´ 55´´
11:10 Parking brakes on
11:10 Block to Block Duration: 01:21
11:10 Final Fuel: 11679 Lbls
11:10 Spent Fuel: 6212 Lbls
11:10 Flight Length: 422 NM
11:10 TOD Land Length: 140 NM

Exportar CSV

Powered by Drupal - Modified by Danger4k